sensor_id;sensor_type;location;lat;lon;timestamp;pressure;altitude;pressure_sealevel;temperature;humidity
68169;BME280;54981;50.206;15.978;2023-01-31T00:00:45;98519.22;;;2.30;100.00
68169;BME280;54981;50.206;15.978;2023-01-31T00:04:45;98529.72;;;2.30;100.00
68169;BME280;54981;50.206;15.978;2023-01-31T00:08:47;98528.34;;;2.48;100.00
68169;BME280;54981;50.206;15.978;2023-01-31T00:12:48;98524.72;;;2.52;100.00
68169;BME280;54981;50.206;15.978;2023-01-31T00:16:48;98539.75;;;2.47;100.00
68169;BME280;54981;50.206;15.978;2023-01-31T00:20:48;98543.91;;;2.56;100.00
68169;BME280;54981;50.206;15.978;2023-01-31T00:24:49;98549.50;;;2.12;100.00
68169;BME280;54981;50.206;15.978;2023-01-31T00:28:50;98569.47;;;1.85;100.00
68169;BME280;54981;50.206;15.978;2023-01-31T00:32:51;98581.31;;;1.66;100.00
68169;BME280;54981;50.206;15.978;2023-01-31T00:36:51;98588.94;;;1.41;100.00
68169;BME280;54981;50.206;15.978;2023-01-31T00:40:52;98583.31;;;1.20;100.00
68169;BME280;54981;50.206;15.978;2023-01-31T00:44:53;98588.59;;;1.19;100.00
68169;BME280;54981;50.206;15.978;2023-01-31T00:48:54;98589.50;;;1.16;100.00
68169;BME280;54981;50.206;15.978;2023-01-31T00:52:55;98611.31;;;1.18;100.00
68169;BME280;54981;50.206;15.978;2023-01-31T00:56:55;98628.56;;;1.28;100.00
68169;BME280;54981;50.206;15.978;2023-01-31T01:01:04;98624.06;;;1.35;100.00
68169;BME280;54981;50.206;15.978;2023-01-31T01:05:05;98631.09;;;1.32;100.00
68169;BME280;54981;50.206;15.978;2023-01-31T01:09:05;98619.66;;;1.36;100.00
68169;BME280;54981;50.206;15.978;2023-01-31T01:13:06;98619.75;;;1.31;100.00
68169;BME280;54981;50.206;15.978;2023-01-31T01:17:06;98627.75;;;1.25;100.00
68169;BME280;54981;50.206;15.978;2023-01-31T01:21:08;98627.75;;;1.25;100.00
68169;BME280;54981;50.206;15.978;2023-01-31T01:25:09;98629.53;;;1.24;100.00
68169;BME280;54981;50.206;15.978;2023-01-31T01:29:10;98635.50;;;1.31;100.00
68169;BME280;54981;50.206;15.978;2023-01-31T01:33:11;98626.84;;;1.27;100.00
68169;BME280;54981;50.206;15.978;2023-01-31T01:37:11;98617.97;;;1.33;100.00
68169;BME280;54981;50.206;15.978;2023-01-31T01:41:19;98611.78;;;1.36;100.00
68169;BME280;54981;50.206;15.978;2023-01-31T01:45:20;98619.50;;;1.42;100.00
68169;BME280;54981;50.206;15.978;2023-01-31T01:49:34;98629.88;;;1.46;100.00
68169;BME280;54981;50.206;15.978;2023-01-31T01:53:38;98629.78;;;1.51;100.00
68169;BME280;54981;50.206;15.978;2023-01-31T01:57:42;98631.56;;;1.51;100.00
68169;BME280;54981;50.206;15.978;2023-01-31T02:01:45;98637.72;;;1.49;100.00
68169;BME280;54981;50.206;15.978;2023-01-31T02:05:50;98640.22;;;1.54;100.00
68169;BME280;54981;50.206;15.978;2023-01-31T02:10:02;98641.97;;;1.54;100.00
68169;BME280;54981;50.206;15.978;2023-01-31T02:14:08;98649.78;;;1.57;100.00
68169;BME280;54981;50.206;15.978;2023-01-31T02:18:10;98660.22;;;1.58;100.00
68169;BME280;54981;50.206;15.978;2023-01-31T02:22:16;98667.03;;;1.67;100.00
68169;BME280;54981;50.206;15.978;2023-01-31T02:48:18;98689.34;;;1.47;100.00
68169;BME280;54981;50.206;15.978;2023-01-31T02:52:47;98706.81;;;1.48;100.00
68169;BME280;54981;50.206;15.978;2023-01-31T02:56:49;98703.34;;;1.46;100.00
68169;BME280;54981;50.206;15.978;2023-01-31T03:00:55;98710.41;;;1.44;100.00
68169;BME280;54981;50.206;15.978;2023-01-31T03:04:56;98727.19;;;1.37;100.00
68169;BME280;54981;50.206;15.978;2023-01-31T03:09:16;98742.69;;;1.46;100.00
68169;BME280;54981;50.206;15.978;2023-01-31T03:21:51;98756.94;;;1.35;100.00
68169;BME280;54981;50.206;15.978;2023-01-31T03:25:57;98739.25;;;1.44;100.00
68169;BME280;54981;50.206;15.978;2023-01-31T03:30:03;98750.25;;;1.20;100.00
68169;BME280;54981;50.206;15.978;2023-01-31T03:34:07;98754.09;;;1.03;100.00
68169;BME280;54981;50.206;15.978;2023-01-31T03:38:14;98746.16;;;1.06;100.00
68169;BME280;54981;50.206;15.978;2023-01-31T03:42:41;98762.84;;;1.02;100.00
68169;BME280;54981;50.206;15.978;2023-01-31T03:46:52;98770.72;;;1.01;100.00
68169;BME280;54981;50.206;15.978;2023-01-31T03:50:57;98778.50;;;1.05;100.00
68169;BME280;54981;50.206;15.978;2023-01-31T03:55:14;98785.44;;;1.08;100.00
68169;BME280;54981;50.206;15.978;2023-01-31T03:59:19;98784.50;;;1.12;100.00
68169;BME280;54981;50.206;15.978;2023-01-31T04:03:36;98779.34;;;1.08;100.00
68169;BME280;54981;50.206;15.978;2023-01-31T04:07:39;98797.66;;;1.09;100.00
68169;BME280;54981;50.206;15.978;2023-01-31T04:11:40;98794.13;;;1.12;100.00
68169;BME280;54981;50.206;15.978;2023-01-31T04:15:41;98794.22;;;1.05;100.00
68169;BME280;54981;50.206;15.978;2023-01-31T04:19:42;98792.53;;;1.03;100.00
68169;BME280;54981;50.206;15.978;2023-01-31T04:23:42;98804.78;;;1.02;100.00
68169;BME280;54981;50.206;15.978;2023-01-31T04:27:42;98818.66;;;1.09;100.00
68169;BME280;54981;50.206;15.978;2023-01-31T04:31:43;98822.47;;;1.36;100.00
68169;BME280;54981;50.206;15.978;2023-01-31T04:35:43;98823.59;;;1.24;100.00
68169;BME280;54981;50.206;15.978;2023-01-31T04:39:43;98817.47;;;1.24;100.00
68169;BME280;54981;50.206;15.978;2023-01-31T04:43:44;98808.63;;;1.30;100.00
68169;BME280;54981;50.206;15.978;2023-01-31T04:47:44;98818.97;;;1.37;100.00
68169;BME280;54981;50.206;15.978;2023-01-31T04:51:44;98812.94;;;1.32;100.00
68169;BME280;54981;50.206;15.978;2023-01-31T04:55:45;98833.13;;;1.30;100.00
68169;BME280;54981;50.206;15.978;2023-01-31T04:59:45;98820.00;;;1.30;100.00
68169;BME280;54981;50.206;15.978;2023-01-31T05:03:46;98829.34;;;1.43;100.00
68169;BME280;54981;50.206;15.978;2023-01-31T05:07:47;98827.47;;;1.50;100.00
68169;BME280;54981;50.206;15.978;2023-01-31T05:11:47;98828.34;;;1.49;100.00
68169;BME280;54981;50.206;15.978;2023-01-31T05:15:48;98827.47;;;1.50;100.00
68169;BME280;54981;50.206;15.978;2023-01-31T05:19:51;98842.38;;;1.46;100.00
68169;BME280;54981;50.206;15.978;2023-01-31T05:23:54;98855.47;;;1.48;100.00
68169;BME280;54981;50.206;15.978;2023-01-31T05:27:55;98864.38;;;1.39;100.00
68169;BME280;54981;50.206;15.978;2023-01-31T05:31:57;98864.38;;;1.39;100.00
68169;BME280;54981;50.206;15.978;2023-01-31T05:35:59;98867.94;;;1.37;100.00
68169;BME280;54981;50.206;15.978;2023-01-31T05:39:59;98868.78;;;1.39;100.00
68169;BME280;54981;50.206;15.978;2023-01-31T05:44:00;98884.44;;;1.42;100.00
68169;BME280;54981;50.206;15.978;2023-01-31T05:48:00;98881.94;;;1.37;100.00
68169;BME280;54981;50.206;15.978;2023-01-31T05:52:01;98897.88;;;1.25;100.00
68169;BME280;54981;50.206;15.978;2023-01-31T05:56:01;98886.88;;;1.04;100.00
68169;BME280;54981;50.206;15.978;2023-01-31T06:00:02;98907.03;;;1.01;100.00
68169;BME280;54981;50.206;15.978;2023-01-31T06:04:03;98900.09;;;0.98;100.00
68169;BME280;54981;50.206;15.978;2023-01-31T06:08:03;98898.38;;;0.96;100.00
68169;BME280;54981;50.206;15.978;2023-01-31T06:12:04;98913.19;;;0.98;100.00
68169;BME280;54981;50.206;15.978;2023-01-31T06:16:05;98912.38;;;0.96;100.00
68169;BME280;54981;50.206;15.978;2023-01-31T06:20:06;98915.72;;;1.04;100.00
68169;BME280;54981;50.206;15.978;2023-01-31T06:24:06;98921.03;;;1.00;100.00
68169;BME280;54981;50.206;15.978;2023-01-31T06:28:07;98933.16;;;1.09;100.00
68169;BME280;54981;50.206;15.978;2023-01-31T06:32:07;98937.50;;;1.10;100.00
68169;BME280;54981;50.206;15.978;2023-01-31T06:36:07;98946.25;;;1.09;100.00
68169;BME280;54981;50.206;15.978;2023-01-31T06:40:08;98954.97;;;1.09;100.00
68169;BME280;54981;50.206;15.978;2023-01-31T06:44:09;98950.53;;;1.14;100.00
68169;BME280;54981;50.206;15.978;2023-01-31T06:48:10;98967.13;;;1.15;100.00
68169;BME280;54981;50.206;15.978;2023-01-31T06:52:11;98975.84;;;1.15;100.00
68169;BME280;54981;50.206;15.978;2023-01-31T06:56:11;98982.06;;;1.11;100.00
68169;BME280;54981;50.206;15.978;2023-01-31T07:00:13;98979.50;;;1.06;100.00
68169;BME280;54981;50.206;15.978;2023-01-31T07:04:14;98977.91;;;0.96;100.00
68169;BME280;54981;50.206;15.978;2023-01-31T07:08:14;98984.94;;;0.94;100.00
68169;BME280;54981;50.206;15.978;2023-01-31T07:12:15;98983.91;;;1.03;100.00
68169;BME280;54981;50.206;15.978;2023-01-31T07:16:18;98983.75;;;1.14;100.00
68169;BME280;54981;50.206;15.978;2023-01-31T07:20:18;98990.69;;;1.16;100.00
68169;BME280;54981;50.206;15.978;2023-01-31T07:24:19;98993.41;;;1.12;100.00
68169;BME280;54981;50.206;15.978;2023-01-31T07:28:19;98997.75;;;1.13;100.00
68169;BME280;54981;50.206;15.978;2023-01-31T07:32:19;99008.28;;;1.08;100.00
68169;BME280;54981;50.206;15.978;2023-01-31T07:36:20;99024.94;;;1.07;100.00
68169;BME280;54981;50.206;15.978;2023-01-31T07:40:25;99018.72;;;1.13;100.00
68169;BME280;54981;50.206;15.978;2023-01-31T07:44:25;99024.88;;;1.12;100.00
68169;BME280;54981;50.206;15.978;2023-01-31T07:48:26;99021.19;;;1.22;100.00
68169;BME280;54981;50.206;15.978;2023-01-31T07:52:26;99022.81;;;1.29;100.00
68169;BME280;54981;50.206;15.978;2023-01-31T07:56:27;99019.34;;;1.30;100.00
68169;BME280;54981;50.206;15.978;2023-01-31T08:00:27;99021.06;;;1.31;100.00
68169;BME280;54981;50.206;15.978;2023-01-31T08:04:46;99030.63;;;1.35;100.00
68169;BME280;54981;50.206;15.978;2023-01-31T08:08:46;99032.34;;;1.35;100.00
68169;BME280;54981;50.206;15.978;2023-01-31T08:12:46;99040.19;;;1.36;100.00
68169;BME280;54981;50.206;15.978;2023-01-31T08:16:47;99054.16;;;1.40;100.00
68169;BME280;54981;50.206;15.978;2023-01-31T08:20:47;99062.81;;;1.45;100.00
68169;BME280;54981;50.206;15.978;2023-01-31T08:24:47;99060.97;;;1.52;100.00
68169;BME280;54981;50.206;15.978;2023-01-31T08:28:49;99063.53;;;1.53;100.00
68169;BME280;54981;50.206;15.978;2023-01-31T08:32:50;99073.03;;;1.62;100.00
68169;BME280;54981;50.206;15.978;2023-01-31T08:36:50;99082.53;;;1.67;100.00
68169;BME280;54981;50.206;15.978;2023-01-31T08:40:51;99080.84;;;1.63;100.00
68169;BME280;54981;50.206;15.978;2023-01-31T08:44:51;99079.00;;;1.70;100.00
68169;BME280;54981;50.206;15.978;2023-01-31T08:48:51;99089.56;;;1.65;100.00
68169;BME280;54981;50.206;15.978;2023-01-31T08:52:56;99094.16;;;1.53;100.00
68169;BME280;54981;50.206;15.978;2023-01-31T08:56:56;99093.31;;;1.52;100.00
68169;BME280;54981;50.206;15.978;2023-01-31T09:01:00;99106.38;;;1.55;100.00
68169;BME280;54981;50.206;15.978;2023-01-31T09:05:01;99096.66;;;1.60;100.00
68169;BME280;54981;50.206;15.978;2023-01-31T09:09:02;99093.22;;;1.57;100.00
68169;BME280;54981;50.206;15.978;2023-01-31T09:13:03;99101.00;;;1.63;100.00
68169;BME280;54981;50.206;15.978;2023-01-31T09:17:03;99095.59;;;1.72;100.00
68169;BME280;54981;50.206;15.978;2023-01-31T09:21:12;99100.78;;;1.75;100.00
68169;BME280;54981;50.206;15.978;2023-01-31T09:25:13;99103.53;;;1.67;100.00
68169;BME280;54981;50.206;15.978;2023-01-31T09:29:13;99115.81;;;1.67;100.00
68169;BME280;54981;50.206;15.978;2023-01-31T09:33:14;99120.84;;;1.81;100.00
68169;BME280;54981;50.206;15.978;2023-01-31T09:37:15;99118.22;;;1.79;100.00
68169;BME280;54981;50.206;15.978;2023-01-31T09:41:32;99126.38;;;1.62;100.00
68169;BME280;54981;50.206;15.978;2023-01-31T09:45:36;99121.25;;;1.53;100.00
68169;BME280;54981;50.206;15.978;2023-01-31T09:49:46;99124.25;;;1.30;100.00
68169;BME280;54981;50.206;15.978;2023-01-31T09:53:47;99121.31;;;1.50;100.00
68169;BME280;54981;50.206;15.978;2023-01-31T09:57:53;99115.44;;;1.88;100.00
68169;BME280;54981;50.206;15.978;2023-01-31T10:10:42;99108.97;;;2.08;100.00
68169;BME280;54981;50.206;15.978;2023-01-31T10:14:51;99102.53;;;1.76;100.00
68169;BME280;54981;50.206;15.978;2023-01-31T10:19:00;99105.38;;;1.64;100.00
68169;BME280;54981;50.206;15.978;2023-01-31T10:23:10;99099.41;;;1.53;100.00
68169;BME280;54981;50.206;15.978;2023-01-31T10:32:01;99091.00;;;1.85;100.00
68169;BME280;54981;50.206;15.978;2023-01-31T10:40:24;99080.94;;;2.10;100.00
68169;BME280;54981;50.206;15.978;2023-01-31T10:44:40;99094.72;;;2.21;100.00
68169;BME280;54981;50.206;15.978;2023-01-31T10:48:43;99088.44;;;2.28;100.00
68169;BME280;54981;50.206;15.978;2023-01-31T10:52:56;99083.31;;;2.24;100.00
68169;BME280;54981;50.206;15.978;2023-01-31T10:57:01;99082.13;;;2.39;100.00
68169;BME280;54981;50.206;15.978;2023-01-31T11:01:05;99073.75;;;2.20;100.00
68169;BME280;54981;50.206;15.978;2023-01-31T11:05:18;99062.97;;;2.33;100.00
68169;BME280;54981;50.206;15.978;2023-01-31T11:09:21;99053.56;;;2.65;100.00
68169;BME280;54981;50.206;15.978;2023-01-31T11:13:22;99052.91;;;2.54;100.00
68169;BME280;54981;50.206;15.978;2023-01-31T11:17:23;99058.19;;;2.52;100.00
68169;BME280;54981;50.206;15.978;2023-01-31T11:21:26;99065.28;;;2.49;100.00
68169;BME280;54981;50.206;15.978;2023-01-31T11:25:30;99056.81;;;2.34;100.00
68169;BME280;54981;50.206;15.978;2023-01-31T11:29:35;99054.19;;;2.33;100.00
68169;BME280;54981;50.206;15.978;2023-01-31T11:33:56;99049.69;;;2.41;100.00
68169;BME280;54981;50.206;15.978;2023-01-31T11:42:14;99028.50;;;2.49;100.00
68169;BME280;54981;50.206;15.978;2023-01-31T11:46:15;99020.59;;;2.49;100.00
68169;BME280;54981;50.206;15.978;2023-01-31T11:50:35;99007.38;;;2.53;100.00
68169;BME280;54981;50.206;15.978;2023-01-31T11:54:40;99005.59;;;2.55;100.00
68169;BME280;54981;50.206;15.978;2023-01-31T11:58:42;98996.38;;;2.75;100.00
68169;BME280;54981;50.206;15.978;2023-01-31T12:02:45;98987.78;;;2.67;100.00
68169;BME280;54981;50.206;15.978;2023-01-31T12:10:58;98961.94;;;2.86;100.00
68169;BME280;54981;50.206;15.978;2023-01-31T12:15:04;98959.19;;;2.92;100.00
68169;BME280;54981;50.206;15.978;2023-01-31T12:27:39;98936.22;;;3.34;100.00
68169;BME280;54981;50.206;15.978;2023-01-31T12:53:21;98902.75;;;3.39;100.00
68169;BME280;54981;50.206;15.978;2023-01-31T13:01:36;98895.53;;;3.46;100.00
68169;BME280;54981;50.206;15.978;2023-01-31T13:05:52;98895.63;;;3.43;100.00
68169;BME280;54981;50.206;15.978;2023-01-31T13:09:54;98891.59;;;3.62;100.00
68169;BME280;54981;50.206;15.978;2023-01-31T13:14:00;98882.22;;;3.52;100.00
68169;BME280;54981;50.206;15.978;2023-01-31T13:18:03;98877.53;;;3.63;100.00
68169;BME280;54981;50.206;15.978;2023-01-31T13:22:30;98883.63;;;3.66;100.00
68169;BME280;54981;50.206;15.978;2023-01-31T13:26:31;98892.59;;;3.26;100.00
68169;BME280;54981;50.206;15.978;2023-01-31T13:30:41;98879.53;;;3.21;100.00
68169;BME280;54981;50.206;15.978;2023-01-31T13:34:45;98870.06;;;3.15;100.00
68169;BME280;54981;50.206;15.978;2023-01-31T13:38:47;98877.00;;;3.18;100.00
68169;BME280;54981;50.206;15.978;2023-01-31T13:42:49;98855.56;;;3.32;100.00
68169;BME280;54981;50.206;15.978;2023-01-31T13:47:02;98850.25;;;3.35;100.00
68169;BME280;54981;50.206;15.978;2023-01-31T13:51:14;98833.63;;;3.33;100.00
68169;BME280;54981;50.206;15.978;2023-01-31T13:55:33;98826.72;;;3.29;100.00
68169;BME280;54981;50.206;15.978;2023-01-31T13:59:36;98828.34;;;3.34;100.00
68169;BME280;54981;50.206;15.978;2023-01-31T14:12:34;98831.59;;;3.42;100.00
68169;BME280;54981;50.206;15.978;2023-01-31T14:16:39;98821.84;;;3.46;100.00
68169;BME280;54981;50.206;15.978;2023-01-31T14:20:41;98828.19;;;3.39;100.00
68169;BME280;54981;50.206;15.978;2023-01-31T14:28:59;98818.66;;;3.35;100.00
68169;BME280;54981;50.206;15.978;2023-01-31T14:46:03;98793.81;;;3.45;100.00
68169;BME280;54981;50.206;15.978;2023-01-31T14:58:56;98757.13;;;3.39;100.00
68169;BME280;54981;50.206;15.978;2023-01-31T15:07:15;98757.41;;;3.30;100.00
68169;BME280;54981;50.206;15.978;2023-01-31T15:15:29;98762.47;;;3.36;100.00
68169;BME280;54981;50.206;15.978;2023-01-31T15:19:42;98766.53;;;3.16;100.00
68169;BME280;54981;50.206;15.978;2023-01-31T15:23:43;98774.34;;;3.19;100.00
68169;BME280;54981;50.206;15.978;2023-01-31T15:27:44;98771.47;;;3.29;100.00
68169;BME280;54981;50.206;15.978;2023-01-31T15:31:47;98773.25;;;3.27;100.00
68169;BME280;54981;50.206;15.978;2023-01-31T15:35:55;98778.03;;;3.12;100.00
68169;BME280;54981;50.206;15.978;2023-01-31T15:40:03;98780.88;;;3.06;100.00
68169;BME280;54981;50.206;15.978;2023-01-31T15:44:14;98785.38;;;2.67;100.00
68169;BME280;54981;50.206;15.978;2023-01-31T15:48:16;98790.00;;;2.59;100.00
68169;BME280;54981;50.206;15.978;2023-01-31T15:56:25;98807.34;;;2.66;100.00
68169;BME280;54981;50.206;15.978;2023-01-31T16:00:30;98810.06;;;2.61;100.00
68169;BME280;54981;50.206;15.978;2023-01-31T16:04:30;98802.31;;;2.56;100.00
68169;BME280;54981;50.206;15.978;2023-01-31T16:08:39;98817.94;;;2.25;100.00
68169;BME280;54981;50.206;15.978;2023-01-31T16:12:43;98813.78;;;2.17;100.00
68169;BME280;54981;50.206;15.978;2023-01-31T16:16:46;98811.09;;;2.18;100.00
68169;BME280;54981;50.206;15.978;2023-01-31T16:20:51;98808.41;;;2.21;100.00
68169;BME280;54981;50.206;15.978;2023-01-31T16:24:59;98800.47;;;2.24;100.00
68169;BME280;54981;50.206;15.978;2023-01-31T16:29:06;98799.34;;;2.34;100.00
68169;BME280;54981;50.206;15.978;2023-01-31T16:33:20;98803.22;;;2.18;100.00
68169;BME280;54981;50.206;15.978;2023-01-31T16:37:35;98807.31;;;2.31;100.00
68169;BME280;54981;50.206;15.978;2023-01-31T16:54:25;98779.22;;;2.33;100.00
68169;BME280;54981;50.206;15.978;2023-01-31T16:58:53;98787.22;;;2.29;100.00
68169;BME280;54981;50.206;15.978;2023-01-31T17:02:58;98781.91;;;2.30;100.00
68169;BME280;54981;50.206;15.978;2023-01-31T17:07:04;98785.78;;;2.16;100.00
68169;BME280;54981;50.206;15.978;2023-01-31T17:11:09;98785.88;;;2.11;100.00
68169;BME280;54981;50.206;15.978;2023-01-31T17:15:15;98789.97;;;2.23;100.00
68169;BME280;54981;50.206;15.978;2023-01-31T17:19:16;98785.34;;;1.97;100.00
68169;BME280;54981;50.206;15.978;2023-01-31T17:23:17;98780.81;;;2.03;100.00
68169;BME280;54981;50.206;15.978;2023-01-31T17:27:18;98779.59;;;1.79;100.00
68169;BME280;54981;50.206;15.978;2023-01-31T17:31:22;98777.41;;;2.00;100.00
68169;BME280;54981;50.206;15.978;2023-01-31T17:35:34;98769.75;;;1.89;100.00
68169;BME280;54981;50.206;15.978;2023-01-31T17:39:35;98769.75;;;1.90;100.00
68169;BME280;54981;50.206;15.978;2023-01-31T17:43:36;98756.31;;;2.03;100.00
68169;BME280;54981;50.206;15.978;2023-01-31T17:47:36;98757.50;;;1.89;100.00
68169;BME280;54981;50.206;15.978;2023-01-31T17:51:36;98751.34;;;1.90;100.00
68169;BME280;54981;50.206;15.978;2023-01-31T17:55:37;98757.50;;;1.89;100.00
68169;BME280;54981;50.206;15.978;2023-01-31T17:59:37;98760.00;;;1.94;100.00
68169;BME280;54981;50.206;15.978;2023-01-31T18:03:38;98762.75;;;1.89;100.00
68169;BME280;54981;50.206;15.978;2023-01-31T18:07:39;98742.75;;;1.84;100.00
68169;BME280;54981;50.206;15.978;2023-01-31T18:11:39;98740.22;;;1.79;100.00
68169;BME280;54981;50.206;15.978;2023-01-31T18:15:42;98746.28;;;1.83;100.00
68169;BME280;54981;50.206;15.978;2023-01-31T18:19:43;98746.78;;;1.99;100.00
68169;BME280;54981;50.206;15.978;2023-01-31T18:23:53;98732.03;;;1.93;100.00
68169;BME280;54981;50.206;15.978;2023-01-31T18:27:54;98727.03;;;1.82;100.00
68169;BME280;54981;50.206;15.978;2023-01-31T18:31:55;98724.34;;;1.85;100.00
68169;BME280;54981;50.206;15.978;2023-01-31T18:35:58;98721.72;;;1.85;100.00
68169;BME280;54981;50.206;15.978;2023-01-31T18:39:58;98712.31;;;1.75;100.00
68169;BME280;54981;50.206;15.978;2023-01-31T18:43:58;98707.72;;;1.85;100.00
68169;BME280;54981;50.206;15.978;2023-01-31T18:47:59;98708.66;;;1.82;100.00
68169;BME280;54981;50.206;15.978;2023-01-31T18:51:59;98707.72;;;1.85;100.00
68169;BME280;54981;50.206;15.978;2023-01-31T18:56:02;98709.47;;;1.84;100.00
68169;BME280;54981;50.206;15.978;2023-01-31T19:00:03;98700.53;;;1.93;100.00
68169;BME280;54981;50.206;15.978;2023-01-31T19:04:04;98690.69;;;2.01;100.00
68169;BME280;54981;50.206;15.978;2023-01-31T19:08:05;98693.41;;;1.98;100.00
68169;BME280;54981;50.206;15.978;2023-01-31T19:12:06;98701.25;;;2.00;100.00
68169;BME280;54981;50.206;15.978;2023-01-31T19:16:12;98687.13;;;2.04;100.00
68169;BME280;54981;50.206;15.978;2023-01-31T19:20:12;98691.63;;;2.00;100.00
68169;BME280;54981;50.206;15.978;2023-01-31T19:24:13;98671.69;;;2.26;100.00
68169;BME280;54981;50.206;15.978;2023-01-31T19:28:14;98674.69;;;2.12;100.00
68169;BME280;54981;50.206;15.978;2023-01-31T19:32:15;98679.06;;;2.11;100.00
68169;BME280;54981;50.206;15.978;2023-01-31T19:36:17;98678.91;;;2.19;100.00
68169;BME280;54981;50.206;15.978;2023-01-31T19:40:18;98683.16;;;2.23;100.00
68169;BME280;54981;50.206;15.978;2023-01-31T19:44:18;98680.69;;;2.17;100.00
68169;BME280;54981;50.206;15.978;2023-01-31T19:48:19;98675.31;;;2.22;100.00
68169;BME280;54981;50.206;15.978;2023-01-31T19:52:23;98661.00;;;2.33;100.00
68169;BME280;54981;50.206;15.978;2023-01-31T19:56:23;98667.94;;;2.36;100.00
68169;BME280;54981;50.206;15.978;2023-01-31T20:00:24;98663.50;;;2.38;100.00
68169;BME280;54981;50.206;15.978;2023-01-31T20:04:24;98678.50;;;2.34;100.00
68169;BME280;54981;50.206;15.978;2023-01-31T20:08:25;98666.19;;;2.37;100.00
68169;BME280;54981;50.206;15.978;2023-01-31T20:12:27;98665.97;;;2.44;100.00
68169;BME280;54981;50.206;15.978;2023-01-31T20:16:27;98676.38;;;2.47;100.00
68169;BME280;54981;50.206;15.978;2023-01-31T20:20:28;98660.63;;;2.47;100.00
68169;BME280;54981;50.206;15.978;2023-01-31T20:24:28;98660.28;;;2.60;100.00
68169;BME280;54981;50.206;15.978;2023-01-31T20:28:28;98659.22;;;2.67;100.00
68169;BME280;54981;50.206;15.978;2023-01-31T20:32:29;98655.72;;;2.66;100.00
68169;BME280;54981;50.206;15.978;2023-01-31T20:36:29;98655.25;;;2.83;100.00
68169;BME280;54981;50.206;15.978;2023-01-31T20:40:30;98648.75;;;2.65;100.00
68169;BME280;54981;50.206;15.978;2023-01-31T20:44:30;98651.16;;;2.74;100.00
68169;BME280;54981;50.206;15.978;2023-01-31T20:48:30;98643.25;;;2.74;100.00
68169;BME280;54981;50.206;15.978;2023-01-31T20:52:31;98646.69;;;2.76;100.00
68169;BME280;54981;50.206;15.978;2023-01-31T20:56:31;98651.56;;;2.59;100.00
68169;BME280;54981;50.206;15.978;2023-01-31T21:00:31;98645.69;;;2.81;100.00
68169;BME280;54981;50.206;15.978;2023-01-31T21:04:32;98635.91;;;2.86;100.00
68169;BME280;54981;50.206;15.978;2023-01-31T21:08:32;98645.88;;;2.74;100.00
68169;BME280;54981;50.206;15.978;2023-01-31T21:12:34;98641.09;;;2.89;100.00
68169;BME280;54981;50.206;15.978;2023-01-31T21:16:34;98635.91;;;2.86;100.00
68169;BME280;54981;50.206;15.978;2023-01-31T21:20:35;98622.84;;;2.83;100.00
68169;BME280;54981;50.206;15.978;2023-01-31T21:24:35;98606.00;;;2.90;100.00
68169;BME280;54981;50.206;15.978;2023-01-31T21:28:36;98600.38;;;3.02;100.00
68169;BME280;54981;50.206;15.978;2023-01-31T21:32:36;98612.69;;;3.00;100.00
68169;BME280;54981;50.206;15.978;2023-01-31T21:36:36;98612.91;;;2.94;100.00
68169;BME280;54981;50.206;15.978;2023-01-31T21:40:37;98612.06;;;3.22;100.00
68169;BME280;54981;50.206;15.978;2023-01-31T21:44:38;98621.25;;;3.08;100.00
68169;BME280;54981;50.206;15.978;2023-01-31T21:48:38;98596.88;;;3.02;100.00
68169;BME280;54981;50.206;15.978;2023-01-31T21:52:38;98600.09;;;3.11;100.00
68169;BME280;54981;50.206;15.978;2023-01-31T21:56:39;98598.47;;;3.07;100.00
68169;BME280;54981;50.206;15.978;2023-01-31T22:00:39;98589.47;;;3.14;100.00
68169;BME280;54981;50.206;15.978;2023-01-31T22:04:42;98605.16;;;3.17;100.00
68169;BME280;54981;50.206;15.978;2023-01-31T22:08:43;98597.81;;;3.29;100.00
68169;BME280;54981;50.206;15.978;2023-01-31T22:12:44;98590.75;;;3.29;100.00
68169;BME280;54981;50.206;15.978;2023-01-31T22:16:44;98592.63;;;3.27;100.00
68169;BME280;54981;50.206;15.978;2023-01-31T22:20:45;98600.03;;;3.41;100.00
68169;BME280;54981;50.206;15.978;2023-01-31T22:24:46;98592.50;;;3.30;100.00
68169;BME280;54981;50.206;15.978;2023-01-31T22:28:47;98596.09;;;3.28;100.00
68169;BME280;54981;50.206;15.978;2023-01-31T22:32:47;98598.28;;;3.13;100.00
68169;BME280;54981;50.206;15.978;2023-01-31T22:36:47;98600.22;;;3.07;100.00
68169;BME280;54981;50.206;15.978;2023-01-31T22:40:48;98568.63;;;3.08;100.00
68169;BME280;54981;50.206;15.978;2023-01-31T22:44:48;98585.16;;;3.12;100.00
68169;BME280;54981;50.206;15.978;2023-01-31T22:48:49;98560.50;;;3.16;100.00
68169;BME280;54981;50.206;15.978;2023-01-31T22:52:50;98556.78;;;3.23;100.00
68169;BME280;54981;50.206;15.978;2023-01-31T22:56:50;98556.81;;;3.22;100.00
68169;BME280;54981;50.206;15.978;2023-01-31T23:00:50;98571.59;;;3.26;100.00
68169;BME280;54981;50.206;15.978;2023-01-31T23:04:51;98572.59;;;3.22;100.00
68169;BME280;54981;50.206;15.978;2023-01-31T23:08:52;98580.69;;;3.15;100.00
68169;BME280;54981;50.206;15.978;2023-01-31T23:12:52;98588.91;;;3.05;100.00
68169;BME280;54981;50.206;15.978;2023-01-31T23:16:52;98588.22;;;2.98;100.00
68169;BME280;54981;50.206;15.978;2023-01-31T23:21:16;98579.88;;;2.84;100.00
68169;BME280;54981;50.206;15.978;2023-01-31T23:25:17;98586.88;;;2.85;100.00
68169;BME280;54981;50.206;15.978;2023-01-31T23:29:18;98584.41;;;2.78;100.00
68169;BME280;54981;50.206;15.978;2023-01-31T23:33:18;98592.25;;;2.80;100.00
68169;BME280;54981;50.206;15.978;2023-01-31T23:37:19;98593.94;;;2.83;100.00
68169;BME280;54981;50.206;15.978;2023-01-31T23:41:22;98603.50;;;2.85;100.00